Ringsted, Iowa
Current Conditions -  °F | °C
As of 5:52 PM on Friday 28 Nov 2014 (Local Time) from KEST Reporting Station
Clear Clear  
Wind Chill: 12°   Ceiling: Unl
Heat Index: 22°   Visibility: 7mi
Dew Point: 20°   Wind: 9mph
Humidity: 92%   Direction: 130°SE
Pressure: 29.73"   Gusts: NA
Location:  43.29°N, 94.51°W
Report Text: KEST 282352Z AUTO 13008KT 7SM CLR M06/M07 A2973 RMK AO2 SLP089 T10561067 11033 21056 55003
Loading
Personal Weather Stations






























Interactive Weather Map New forecast layout! Learn more

10-Day Weather Forecast

Advertisements
Track Severe Weather on mobile